Time;durP1;ratioP1;P1;durP2;ratioP2;P2;SDS_P1;SDS_P2;PMS_P1;PMS_P2;Temp;Humidity;BMP_temperature;BMP_pressure;BME280_temperature;BME280_humidity;BME280_pressure;Samples;Min_cycle;Max_cycle;Signal;HPM_P1;HPM_P2
2024/01/06 00:01:50;;;;;;;;;;;5.50;99.90;;;;;;2618175;54;19938;-72
2024/01/06 00:04:19;;;;;;;;;;;5.50;99.90;;;;;;2617668;54;19947;-71
2024/01/06 00:06:49;;;;;;;;;;;5.50;99.90;;;;;;2617824;39;20364;-71
2024/01/06 00:09:19;;;;;;;;;;;5.60;99.90;;;;;;2616387;54;19946;-72
2024/01/06 00:11:51;;;;;;;;;;;5.50;99.90;;;;;;2617182;54;19938;-71
2024/01/06 00:14:21;;;;;;;;;;;5.50;99.90;;;;;;2617158;39;20360;-71
2024/01/06 00:16:51;;;;;;;;;;;5.40;99.90;;;;;;2617647;54;20464;-72
2024/01/06 00:19:20;;;;;;;;;;;5.40;99.90;;;;;;2617558;54;20508;-71
2024/01/06 00:21:50;;;;;;;;;;;5.40;99.90;;;;;;2617154;54;19967;-71
2024/01/06 00:24:20;;;;;;;;;;;5.60;99.90;;;;;;2614839;54;19947;-71
2024/01/06 00:26:52;;;;;;;;;;;5.40;99.90;;;;;;2616513;54;19947;-72
2024/01/06 00:29:22;;;;;;;;;;;5.40;99.90;;;;;;2616261;54;19947;-72
2024/01/06 00:31:52;;;;;;;;;;;5.50;99.90;;;;;;2617107;50;19965;-72
2024/01/06 00:34:22;;;;;;;;;;;4.50;99.90;;;;;;2617162;54;19969;-72
2024/01/06 00:36:52;;;;;;;;;;;5.50;99.90;;;;;;2617720;39;20387;-72
2024/01/06 00:39:22;;;;;;;;;;;5.60;99.90;;;;;;2616126;47;19950;-71
2024/01/06 00:41:55;;;;;;;;;;;5.70;99.90;;;;;;2617030;47;19969;-71
2024/01/06 00:44:25;;;;;;;;;;;5.70;99.90;;;;;;2616649;54;20457;-71
2024/01/06 00:46:54;;;;;;;;;;;5.70;99.90;;;;;;2617837;47;19946;-71
2024/01/06 00:49:24;;;;;;;;;;;5.70;99.90;;;;;;2617192;46;19973;-71
2024/01/06 00:51:53;;;;;;;;;;;5.70;99.90;;;;;;2619713;54;19945;-71
2024/01/06 00:54:23;;;;;;;;;;;5.70;99.90;;;;;;2622080;54;19946;-71
2024/01/06 00:56:56;;;;;;;;;;;5.70;99.90;;;;;;2622705;54;19938;-72
2024/01/06 00:59:27;;;;;;;;;;;5.60;99.90;;;;;;2622885;54;19947;-71
2024/01/06 01:01:56;;;;;;;;;;;5.70;99.90;;;;;;2623291;47;19938;-71
2024/01/06 01:04:26;;;;;;;;;;;5.70;99.90;;;;;;2622477;54;19951;-72
2024/01/06 01:06:56;;;;;;;;;;;5.80;99.90;;;;;;2624312;39;20357;-71
2024/01/06 01:09:26;;;;;;;;;;;5.70;99.90;;;;;;2623485;47;19957;-72
2024/01/06 01:11:58;;;;;;;;;;;5.70;99.90;;;;;;2623052;46;19962;-71
2024/01/06 01:14:28;;;;;;;;;;;5.70;99.90;;;;;;2620829;39;20360;-71
2024/01/06 01:16:57;;;;;;;;;;;5.70;99.90;;;;;;2619227;54;19945;-72
2024/01/06 01:19:27;;;;;;;;;;;5.80;99.90;;;;;;2618314;54;20802;-74
2024/01/06 01:21:57;;;;;;;;;;;5.90;99.90;;;;;;2617989;54;20034;-71
2024/01/06 01:24:26;;;;;;;;;;;5.90;99.90;;;;;;2617426;54;19996;-71
2024/01/06 01:26:59;;;;;;;;;;;5.90;99.90;;;;;;2617649;47;19946;-71
2024/01/06 01:29:28;;;;;;;;;;;6.00;99.90;;;;;;2615220;54;20429;-72
2024/01/06 01:31:58;;;;;;;;;;;6.20;99.90;;;;;;2616772;47;19939;-72
2024/01/06 01:34:28;;;;;;;;;;;6.00;99.90;;;;;;2617909;47;19938;-72
2024/01/06 01:36:58;;;;;;;;;;;6.00;99.90;;;;;;2617295;54;20037;-71
2024/01/06 01:39:27;;;;;;;;;;;6.10;99.90;;;;;;2615328;54;19974;-71
2024/01/06 01:42:00;;;;;;;;;;;6.10;99.90;;;;;;2617625;54;19946;-72
2024/01/06 01:44:30;;;;;;;;;;;6.20;99.90;;;;;;2618941;54;19950;-72
2024/01/06 01:46:59;;;;;;;;;;;6.20;99.90;;;;;;2618511;54;19972;-72
2024/01/06 01:49:29;;;;;;;;;;;6.20;99.90;;;;;;2620559;54;19946;-72
2024/01/06 01:51:59;;;;;;;;;;;6.10;99.90;;;;;;2618660;54;19947;-72
2024/01/06 01:54:29;;;;;;;;;;;6.20;99.90;;;;;;2618366;47;20072;-71
2024/01/06 01:57:01;;;;;;;;;;;6.20;99.90;;;;;;2618348;54;19975;-71
2024/01/06 01:59:31;;;;;;;;;;;6.20;99.90;;;;;;2617029;54;19954;-71
2024/01/06 02:02:00;;;;;;;;;;;5.40;99.90;;;;;;2616299;47;19938;-71
2024/01/06 02:04:30;;;;;;;;;;;6.20;99.90;;;;;;2617261;54;20469;-71
2024/01/06 02:07:00;;;;;;;;;;;5.90;99.90;;;;;;2617544;39;20352;-71
2024/01/06 02:09:30;;;;;;;;;;;6.20;99.90;;;;;;2617047;54;20037;-71
2024/01/06 02:12:02;;;;;;;;;;;6.20;99.90;;;;;;2616979;39;20329;-71
2024/01/06 02:14:32;;;;;;;;;;;6.10;99.90;;;;;;2617427;54;19959;-71
2024/01/06 02:17:02;;;;;;;;;;;6.20;99.90;;;;;;2616920;54;19946;-72
2024/01/06 02:19:31;;;;;;;;;;;6.20;99.90;;;;;;2616493;54;19946;-72
2024/01/06 02:22:04;;;;;;;;;;;6.20;99.90;;;;;;2616224;54;19953;-72
2024/01/06 02:24:34;;;;;;;;;;;6.20;99.90;;;;;;2616058;54;19939;-71
2024/01/06 02:27:03;;;;;;;;;;;6.30;99.90;;;;;;2622560;54;19954;-71
2024/01/06 02:29:33;;;;;;;;;;;6.30;99.90;;;;;;2625825;47;20350;-72
2024/01/06 02:32:02;;;;;;;;;;;6.30;99.90;;;;;;2621422;54;19938;-72
2024/01/06 02:34:32;;;;;;;;;;;6.30;99.90;;;;;;2616668;47;19954;-72
2024/01/06 02:37:05;;;;;;;;;;;6.30;99.90;;;;;;2617419;47;19958;-72
2024/01/06 02:39:34;;;;;;;;;;;6.40;99.90;;;;;;2616725;47;19947;-72
2024/01/06 02:42:04;;;;;;;;;;;6.30;99.90;;;;;;2617178;47;19947;-72
2024/01/06 02:44:34;;;;;;;;;;;6.20;99.90;;;;;;2615352;47;19939;-71
2024/01/06 02:47:03;;;;;;;;;;;6.30;99.90;;;;;;2617226;54;19939;-72
2024/01/06 02:49:33;;;;;;;;;;;6.30;99.90;;;;;;2621296;54;19947;-72
2024/01/06 02:52:06;;;;;;;;;;;6.40;99.90;;;;;;2619940;54;19953;-71
2024/01/06 02:54:35;;;;;;;;;;;6.40;99.90;;;;;;2618713;47;20465;-72
2024/01/06 02:57:05;;;;;;;;;;;6.40;99.90;;;;;;2618795;54;19946;-72
2024/01/06 02:59:34;;;;;;;;;;;6.30;99.90;;;;;;2616495;54;19945;-72
2024/01/06 03:02:04;;;;;;;;;;;6.30;99.90;;;;;;2618063;54;19946;-71
2024/01/06 03:04:34;;;;;;;;;;;6.30;99.90;;;;;;2622613;47;19966;-71
2024/01/06 03:07:06;;;;;;;;;;;6.40;99.90;;;;;;2622459;54;19939;-71
2024/01/06 03:09:35;;;;;;;;;;;6.40;99.90;;;;;;2623870;54;19946;-72
2024/01/06 03:12:05;;;;;;;;;;;6.40;99.90;;;;;;2619538;47;19938;-71
2024/01/06 03:14:36;;;;;;;;;;;6.40;99.90;;;;;;2617356;54;19946;-72
2024/01/06 03:17:06;;;;;;;;;;;6.40;99.90;;;;;;2617252;54;19946;-72
2024/01/06 03:19:35;;;;;;;;;;;6.50;99.90;;;;;;2617714;47;19954;-72
2024/01/06 03:22:08;;;;;;;;;;;6.50;99.90;;;;;;2617210;47;19946;-71
2024/01/06 03:24:37;;;;;;;;;;;6.50;99.90;;;;;;2616556;47;19954;-71
2024/01/06 03:27:08;;;;;;;;;;;6.50;99.90;;;;;;2617004;46;20429;-71
2024/01/06 03:29:38;;;;;;;;;;;6.50;99.90;;;;;;2616654;54;19947;-71
2024/01/06 03:32:08;;;;;;;;;;;6.50;99.90;;;;;;2617593;39;20385;-71
2024/01/06 03:34:38;;;;;;;;;;;6.50;99.90;;;;;;2616355;54;20025;-71
2024/01/06 03:37:10;;;;;;;;;;;6.50;99.90;;;;;;2616760;54;19946;-72
2024/01/06 03:39:40;;;;;;;;;;;6.60;99.90;;;;;;2617490;54;19938;-72
2024/01/06 03:42:09;;;;;;;;;;;6.60;99.90;;;;;;2615109;47;20022;-72
2024/01/06 03:44:39;;;;;;;;;;;6.60;99.90;;;;;;2615690;54;19969;-72
2024/01/06 03:47:09;;;;;;;;;;;6.60;99.90;;;;;;2617542;54;20061;-72
2024/01/06 03:49:38;;;;;;;;;;;6.70;99.90;;;;;;2617037;54;19957;-72
2024/01/06 03:52:10;;;;;;;;;;;6.70;99.90;;;;;;2617704;54;19969;-72
2024/01/06 03:54:37;;;;;;;;;;;6.70;99.90;;;;;;2618564;46;19938;-71
2024/01/06 03:57:07;;;;;;;;;;;6.70;99.90;;;;;;2618384;54;20048;-71
2024/01/06 03:59:37;;;;;;;;;;;6.80;99.90;;;;;;2618061;39;20388;-71
2024/01/06 04:02:06;;;;;;;;;;;6.80;99.90;;;;;;2616826;49;19954;-71
2024/01/06 04:04:36;;;;;;;;;;;6.80;99.90;;;;;;2622107;54;19950;-71
2024/01/06 04:07:06;;;;;;;;;;;6.80;99.90;;;;;;2623135;47;19939;-70
2024/01/06 04:09:39;;;;;;;;;;;6.90;99.90;;;;;;2620709;54;19969;-71
2024/01/06 04:12:09;;;;;;;;;;;6.90;99.90;;;;;;2616022;47;19954;-71
2024/01/06 04:14:38;;;;;;;;;;;6.90;99.90;;;;;;2617656;54;19942;-71
2024/01/06 04:17:08;;;;;;;;;;;6.90;99.90;;;;;;2617155;54;19951;-71
2024/01/06 04:19:37;;;;;;;;;;;6.90;99.90;;;;;;2617621;54;19951;-71
2024/01/06 04:22:07;;;;;;;;;;;7.10;99.90;;;;;;2617450;54;20468;-71
2024/01/06 04:24:40;;;;;;;;;;;7.00;99.90;;;;;;2617106;47;19969;-71
2024/01/06 04:27:10;;;;;;;;;;;6.90;99.90;;;;;;2618325;54;19946;-71
2024/01/06 04:29:40;;;;;;;;;;;7.00;99.90;;;;;;2617171;54;19950;-71
2024/01/06 04:32:10;;;;;;;;;;;7.00;99.90;;;;;;2617627;47;20461;-71
2024/01/06 04:34:39;;;;;;;;;;;7.00;99.90;;;;;;2615892;47;19938;-71
2024/01/06 04:37:09;;;;;;;;;;;7.00;99.90;;;;;;2616845;54;20004;-71
2024/01/06 04:39:42;;;;;;;;;;;7.00;99.90;;;;;;2617013;54;19953;-71
2024/01/06 04:42:12;;;;;;;;;;;7.00;99.90;;;;;;2617198;47;19950;-71
2024/01/06 04:44:41;;;;;;;;;;;7.00;99.90;;;;;;2616755;47;19996;-71
2024/01/06 04:47:11;;;;;;;;;;;6.90;99.90;;;;;;2616867;49;19946;-71
2024/01/06 04:49:40;;;;;;;;;;;6.90;99.90;;;;;;2616867;54;19939;-72
2024/01/06 04:52:10;;;;;;;;;;;6.90;99.90;;;;;;2616953;54;19984;-71
2024/01/06 04:54:43;;;;;;;;;;;6.90;99.90;;;;;;2616199;54;19947;-71
2024/01/06 04:57:12;;;;;;;;;;;6.90;99.90;;;;;;2616147;54;20001;-71
2024/01/06 04:59:42;;;;;;;;;;;6.90;99.90;;;;;;2617005;47;20000;-71
2024/01/06 05:02:12;;;;;;;;;;;6.90;99.90;;;;;;2616968;47;19946;-71
2024/01/06 05:04:42;;;;;;;;;;;6.90;99.90;;;;;;2616904;46;19939;-71
2024/01/06 05:07:11;;;;;;;;;;;6.90;99.90;;;;;;2617124;54;19946;-72
2024/01/06 05:09:43;;;;;;;;;;;6.90;99.90;;;;;;2615926;54;20566;-71
2024/01/06 05:12:13;;;;;;;;;;;6.90;99.90;;;;;;2616205;54;19977;-71
2024/01/06 05:14:43;;;;;;;;;;;6.90;99.90;;;;;;2615778;47;19947;-71
2024/01/06 05:17:12;;;;;;;;;;;6.90;99.90;;;;;;2617050;54;19939;-72
2024/01/06 05:19:42;;;;;;;;;;;6.90;99.90;;;;;;2617196;39;20376;-72
2024/01/06 05:22:12;;;;;;;;;;;6.90;99.90;;;;;;2622449;47;19957;-71
2024/01/06 05:24:44;;;;;;;;;;;6.90;99.90;;;;;;2624986;54;19953;-71
2024/01/06 05:27:14;;;;;;;;;;;6.90;99.90;;;;;;2625666;54;19950;-72
2024/01/06 05:29:44;;;;;;;;;;;6.90;99.90;;;;;;2617937;54;19947;-72
2024/01/06 05:32:13;;;;;;;;;;;6.90;99.90;;;;;;2617160;47;19954;-72
2024/01/06 05:34:44;;;;;;;;;;;6.90;99.90;;;;;;2618202;54;19954;-72
2024/01/06 05:37:14;;;;;;;;;;;6.90;99.90;;;;;;2617253;47;19945;-72
2024/01/06 05:39:46;;;;;;;;;;;6.90;99.90;;;;;;2616913;54;19969;-72
2024/01/06 05:42:16;;;;;;;;;;;6.80;99.90;;;;;;2620929;47;19947;-72
2024/01/06 05:44:45;;;;;;;;;;;6.90;99.90;;;;;;2623025;47;19981;-72
2024/01/06 05:47:16;;;;;;;;;;;6.80;99.90;;;;;;2618188;47;19946;-72
2024/01/06 05:49:46;;;;;;;;;;;6.80;99.90;;;;;;2617006;47;19946;-72
2024/01/06 05:52:17;;;;;;;;;;;6.90;99.90;;;;;;2615823;54;19947;-72
2024/01/06 05:54:49;;;;;;;;;;;6.90;99.90;;;;;;2615451;54;19946;-72
2024/01/06 05:57:19;;;;;;;;;;;6.90;99.90;;;;;;2616780;49;20045;-72
2024/01/06 05:59:49;;;;;;;;;;;6.90;99.90;;;;;;2615678;54;19954;-72
2024/01/06 06:02:18;;;;;;;;;;;7.00;99.90;;;;;;2617086;47;19969;-72
2024/01/06 06:04:48;;;;;;;;;;;6.90;99.90;;;;;;2616672;47;19939;-72
2024/01/06 06:07:17;;;;;;;;;;;6.90;99.90;;;;;;2616457;54;19977;-72
2024/01/06 06:09:50;;;;;;;;;;;7.00;99.90;;;;;;2620810;54;19966;-71
2024/01/06 06:12:19;;;;;;;;;;;7.00;99.90;;;;;;2621489;47;19954;-72
2024/01/06 06:14:49;;;;;;;;;;;7.00;99.90;;;;;;2620961;54;19950;-73
2024/01/06 06:17:19;;;;;;;;;;;6.90;99.90;;;;;;2620934;47;19966;-72
2024/01/06 06:19:49;;;;;;;;;;;6.80;99.90;;;;;;2619222;31;20487;-72
2024/01/06 06:22:19;;;;;;;;;;;6.80;99.90;;;;;;2617310;47;19946;-72
2024/01/06 06:24:51;;;;;;;;;;;6.80;99.90;;;;;;2617052;54;19946;-72
2024/01/06 06:27:21;;;;;;;;;;;6.90;99.90;;;;;;2618603;39;20372;-72
2024/01/06 06:29:51;;;;;;;;;;;6.90;99.90;;;;;;2617887;47;19962;-72
2024/01/06 06:32:20;;;;;;;;;;;6.90;99.90;;;;;;2617979;46;19938;-72
2024/01/06 06:34:50;;;;;;;;;;;7.00;99.90;;;;;;2620413;54;19943;-72
2024/01/06 06:37:20;;;;;;;;;;;7.00;99.90;;;;;;2620749;47;19964;-72
2024/01/06 06:39:52;;;;;;;;;;;7.00;99.90;;;;;;2617796;54;19969;-72
2024/01/06 06:42:22;;;;;;;;;;;7.00;99.90;;;;;;2617126;47;19954;-72
2024/01/06 06:44:52;;;;;;;;;;;7.00;99.90;;;;;;2617233;54;20372;-72
2024/01/06 06:47:21;;;;;;;;;;;7.00;99.90;;;;;;2617542;54;19946;-72
2024/01/06 06:49:51;;;;;;;;;;;7.00;99.90;;;;;;2617074;54;19938;-71
2024/01/06 06:52:21;;;;;;;;;;;7.00;99.90;;;;;;2617359;54;19946;-71
2024/01/06 06:54:53;;;;;;;;;;;7.00;99.90;;;;;;2617405;39;20353;-71
2024/01/06 06:57:23;;;;;;;;;;;7.00;99.90;;;;;;2617569;54;20073;-71
2024/01/06 06:59:53;;;;;;;;;;;7.00;99.90;;;;;;2617598;54;19962;-70
2024/01/06 07:02:23;;;;;;;;;;;7.00;99.90;;;;;;2616792;54;20782;-71
2024/01/06 07:04:53;;;;;;;;;;;7.00;99.90;;;;;;2617030;47;19946;-71
2024/01/06 07:07:23;;;;;;;;;;;7.00;99.90;;;;;;2617993;54;20430;-71
2024/01/06 07:09:55;;;;;;;;;;;7.00;99.90;;;;;;2616855;39;20341;-71
2024/01/06 07:12:25;;;;;;;;;;;7.10;99.90;;;;;;2616145;54;19945;-71
2024/01/06 07:14:55;;;;;;;;;;;7.10;99.90;;;;;;2617156;54;19946;-71
2024/01/06 07:17:24;;;;;;;;;;;7.10;99.90;;;;;;2617429;54;19946;-72
2024/01/06 07:19:54;;;;;;;;;;;7.10;99.90;;;;;;2617061;46;19954;-71
2024/01/06 07:22:23;;;;;;;;;;;7.10;99.90;;;;;;2616924;47;19950;-71
2024/01/06 07:24:56;;;;;;;;;;;7.10;99.90;;;;;;2622410;54;19946;-71
2024/01/06 07:27:25;;;;;;;;;;;7.00;99.90;;;;;;2617388;47;19946;-72
2024/01/06 07:29:56;;;;;;;;;;;7.00;99.90;;;;;;2616617;52;20464;-72
2024/01/06 07:32:26;;;;;;;;;;;7.00;99.90;;;;;;2618234;54;19950;-72
2024/01/06 07:34:55;;;;;;;;;;;7.00;99.90;;;;;;2619111;47;19953;-72
2024/01/06 07:37:25;;;;;;;;;;;7.00;99.90;;;;;;2618004;47;19985;-72
2024/01/06 07:39:57;;;;;;;;;;;7.00;99.90;;;;;;2616564;47;19951;-72
2024/01/06 07:42:27;;;;;;;;;;;7.00;99.90;;;;;;2616301;47;19939;-73
2024/01/06 07:44:57;;;;;;;;;;;7.00;99.90;;;;;;2616289;54;19957;-72
2024/01/06 07:47:26;;;;;;;;;;;7.00;99.90;;;;;;2616043;50;19947;-72
2024/01/06 07:49:57;;;;;;;;;;;7.00;99.90;;;;;;2617136;54;19946;-72
2024/01/06 07:52:27;;;;;;;;;;;6.90;99.90;;;;;;2616842;54;19947;-74
2024/01/06 07:54:59;;;;;;;;;;;6.90;99.90;;;;;;2616088;47;19938;-73
2024/01/06 07:57:28;;;;;;;;;;;6.90;99.90;;;;;;2617175;54;19938;-73
2024/01/06 07:59:59;;;;;;;;;;;6.90;99.90;;;;;;2615610;47;19946;-73
2024/01/06 08:02:34;;;;;;;;;;;7.00;99.90;;;;;;2616534;47;20034;-71
2024/01/06 08:05:03;;;;;;;;;;;7.00;99.90;;;;;;2616740;54;19947;-71
2024/01/06 08:07:33;;;;;;;;;;;7.00;99.90;;;;;;2616879;47;19945;-72
2024/01/06 08:10:06;;;;;;;;;;;7.10;99.90;;;;;;2618013;54;19947;-72
2024/01/06 08:12:36;;;;;;;;;;;7.10;99.90;;;;;;2616060;54;19954;-72
2024/01/06 08:15:08;;;;;;;;;;;7.10;99.90;;;;;;2621406;47;19950;-72
2024/01/06 08:17:40;;;;;;;;;;;7.10;99.90;;;;;;2625287;47;19950;-72
2024/01/06 08:20:11;;;;;;;;;;;7.10;99.90;;;;;;2621712;47;19942;-72
2024/01/06 08:22:40;;;;;;;;;;;7.20;99.90;;;;;;2617619;54;19942;-72
2024/01/06 08:25:13;;;;;;;;;;;7.20;99.90;;;;;;2617612;54;19947;-73
2024/01/06 08:27:43;;;;;;;;;;;7.20;99.90;;;;;;2618597;54;19946;-72
2024/01/06 08:30:13;;;;;;;;;;;7.20;99.90;;;;;;2617176;54;19950;-73
2024/01/06 08:32:42;;;;;;;;;;;7.30;99.90;;;;;;2617021;54;19938;-74
2024/01/06 08:35:13;;;;;;;;;;;7.20;99.90;;;;;;2615869;47;19988;-73
2024/01/06 08:37:43;;;;;;;;;;;7.20;99.90;;;;;;2616660;39;20340;-72
2024/01/06 08:40:15;;;;;;;;;;;7.20;99.90;;;;;;2616239;54;19953;-72
2024/01/06 08:42:45;;;;;;;;;;;7.20;99.90;;;;;;2617081;54;19946;-71
2024/01/06 08:45:15;;;;;;;;;;;7.30;99.90;;;;;;2615980;54;19951;-72
2024/01/06 08:47:45;;;;;;;;;;;7.30;99.90;;;;;;2615946;54;19955;-72
2024/01/06 08:50:14;;;;;;;;;;;7.30;99.90;;;;;;2617148;47;19953;-73
2024/01/06 08:52:44;;;;;;;;;;;7.40;99.90;;;;;;2617193;54;20437;-72
2024/01/06 08:55:16;;;;;;;;;;;7.30;99.90;;;;;;2614647;54;20441;-72
2024/01/06 08:57:46;;;;;;;;;;;7.30;99.90;;;;;;2617496;39;20360;-71
2024/01/06 09:00:17;;;;;;;;;;;7.40;99.90;;;;;;2617885;54;20579;-72
2024/01/06 09:02:47;;;;;;;;;;;7.40;99.90;;;;;;2620713;47;20136;-71
2024/01/06 09:05:17;;;;;;;;;;;7.40;99.90;;;;;;2619147;54;20026;-72
2024/01/06 09:07:49;;;;;;;;;;;7.40;99.90;;;;;;2617906;54;19947;-72
2024/01/06 09:10:26;;;;;;;;;;;7.50;99.90;;;;;;2616553;47;19947;-70
2024/01/06 09:12:56;;;;;;;;;;;7.60;99.90;;;;;;2617408;47;19946;-70
2024/01/06 09:15:26;;;;;;;;;;;7.50;99.90;;;;;;2622574;47;19951;-70
2024/01/06 09:17:56;;;;;;;;;;;7.50;99.90;;;;;;2623893;54;19942;-70
2024/01/06 09:20:27;;;;;;;;;;;7.50;99.90;;;;;;2620205;54;19954;-70
2024/01/06 09:22:56;;;;;;;;;;;7.60;99.90;;;;;;2616915;47;19950;-71
2024/01/06 09:25:29;;;;;;;;;;;7.60;99.90;;;;;;2615613;47;19938;-71
2024/01/06 09:27:59;;;;;;;;;;;7.60;99.90;;;;;;2616588;54;19961;-73
2024/01/06 09:30:29;;;;;;;;;;;7.50;99.90;;;;;;2616835;47;20479;-72
2024/01/06 09:32:59;;;;;;;;;;;7.50;99.90;;;;;;2616156;54;19939;-72
2024/01/06 09:35:28;;;;;;;;;;;7.50;99.90;;;;;;2617206;54;19958;-72
2024/01/06 09:37:58;;;;;;;;;;;7.50;99.90;;;;;;2618968;54;19958;-72
2024/01/06 09:40:33;;;;;;;;;;;7.50;99.90;;;;;;2624602;54;19984;-72
2024/01/06 09:43:03;;;;;;;;;;;7.50;99.90;;;;;;2623864;54;20448;-71
2024/01/06 09:45:34;;;;;;;;;;;7.60;99.90;;;;;;2624630;51;20010;-72
2024/01/06 09:48:08;;;;;;;;;;;7.60;99.90;;;;;;2621097;47;19947;-73
2024/01/06 09:50:39;;;;;;;;;;;7.50;99.90;;;;;;2618939;54;19947;-72
2024/01/06 09:53:10;;;;;;;;;;;7.60;99.90;;;;;;2619488;54;19950;-72
2024/01/06 09:55:43;;;;;;;;;;;7.60;99.90;;;;;;2618451;47;20473;-74
2024/01/06 09:58:13;;;;;;;;;;;7.50;99.90;;;;;;2618535;54;19973;-71
2024/01/06 10:00:43;;;;;;;;;;;7.50;99.90;;;;;;2617618;54;20468;-72
2024/01/06 10:03:13;;;;;;;;;;;7.50;99.90;;;;;;2617639;54;19947;-73
2024/01/06 10:05:43;;;;;;;;;;;7.50;99.90;;;;;;2617838;47;19939;-73
2024/01/06 10:08:13;;;;;;;;;;;7.60;99.90;;;;;;2618245;54;19996;-72
2024/01/06 10:10:46;;;;;;;;;;;7.60;99.90;;;;;;2616874;47;19958;-73
2024/01/06 10:13:19;;;;;;;;;;;7.60;99.90;;;;;;2617638;54;19939;-72
2024/01/06 10:15:48;;;;;;;;;;;7.60;99.90;;;;;;2617519;47;19946;-73
2024/01/06 10:18:18;;;;;;;;;;;7.60;99.90;;;;;;2619266;39;20321;-73
2024/01/06 10:20:48;;;;;;;;;;;7.60;99.90;;;;;;2622132;54;19939;-72
2024/01/06 10:23:18;;;;;;;;;;;7.60;99.90;;;;;;2623335;47;19947;-71
2024/01/06 10:25:50;;;;;;;;;;;6.90;99.90;;;;;;2622281;46;20477;-82
2024/01/06 10:28:25;;;;;;;;;;;7.70;99.90;;;;;;2622906;47;19957;-70
2024/01/06 10:30:58;;;;;;;;;;;8.00;99.90;;;;;;2621315;54;19938;-71
2024/01/06 10:33:28;;;;;;;;;;;7.70;99.90;;;;;;2620944;54;20495;-72
2024/01/06 10:35:59;;;;;;;;;;;7.80;99.90;;;;;;2620588;51;19987;-71
2024/01/06 10:38:29;;;;;;;;;;;7.80;99.90;;;;;;2621990;47;19972;-72
2024/01/06 10:41:04;;;;;;;;;;;7.80;99.90;;;;;;2616969;47;19977;-72
2024/01/06 10:43:37;;;;;;;;;;;8.00;99.90;;;;;;2608634;47;19947;-74
2024/01/06 10:46:10;;;;;;;;;;;7.80;99.90;;;;;;2607874;47;19953;-74
2024/01/06 10:48:42;;;;;;;;;;;7.90;99.90;;;;;;2606396;54;19946;-72
2024/01/06 10:51:14;;;;;;;;;;;7.80;99.90;;;;;;2606117;54;19946;-73
2024/01/06 10:53:45;;;;;;;;;;;7.90;99.90;;;;;;2605881;54;19957;-72
2024/01/06 10:56:18;;;;;;;;;;;7.90;99.90;;;;;;2604347;54;20436;-72
2024/01/06 10:58:51;;;;;;;;;;;8.00;99.90;;;;;;2606697;39;20368;-73
2024/01/06 11:01:24;;;;;;;;;;;7.90;99.90;;;;;;2604994;46;20638;-73
2024/01/06 11:03:58;;;;;;;;;;;7.90;99.90;;;;;;2605811;39;20534;-71
2024/01/06 11:06:29;;;;;;;;;;;7.90;99.90;;;;;;2607860;54;20452;-72
2024/01/06 11:09:04;;;;;;;;;;;8.30;99.90;;;;;;2611660;54;20460;-72
2024/01/06 11:11:37;;;;;;;;;;;7.80;99.90;;;;;;2613253;47;19981;-71
2024/01/06 11:14:20;;;;;;;;;;;7.90;99.90;;;;;;2609658;46;19958;-73
2024/01/06 11:16:50;;;;;;;;;;;7.90;99.90;;;;;;2605160;54;20037;-73
2024/01/06 11:19:40;;;;;;;;;;;7.90;99.90;;;;;;2606967;54;19951;-72
2024/01/06 11:22:23;;;;;;;;;;;8.00;99.90;;;;;;2606195;47;19946;-74
2024/01/06 11:24:51;;;;;;;;;;;8.00;99.90;;;;;;2605295;50;20462;-73
2024/01/06 11:27:26;;;;;;;;;;;7.00;99.90;;;;;;2606091;54;19946;-72
2024/01/06 11:29:56;;;;;;;;;;;8.10;99.90;;;;;;2606377;47;20544;-73
2024/01/06 11:32:30;;;;;;;;;;;8.20;99.90;;;;;;2605874;47;19947;-73
2024/01/06 11:35:08;;;;;;;;;;;8.20;99.90;;;;;;2603326;47;19978;-73
2024/01/06 11:37:39;;;;;;;;;;;8.50;99.90;;;;;;2605771;47;19954;-72
2024/01/06 11:40:13;;;;;;;;;;;8.30;99.90;;;;;;2605499;46;19962;-75
2024/01/06 11:42:46;;;;;;;;;;;8.30;99.90;;;;;;2606145;54;19977;-73
2024/01/06 11:45:16;;;;;;;;;;;8.30;99.90;;;;;;2604537;54;20512;-71
2024/01/06 11:47:49;;;;;;;;;;;8.30;99.90;;;;;;2606962;47;20006;-73
2024/01/06 19:48:37;;;;;;;;;;;6.10;99.90;;;;;;2628564;54;20408;-79
2024/01/06 19:51:07;;;;;;;;;;;6.10;99.90;;;;;;2629292;54;20469;-83
2024/01/06 19:53:37;;;;;;;;;;;6.90;99.90;;;;;;2629440;46;19934;-81
2024/01/06 19:56:07;;;;;;;;;;;6.00;99.90;;;;;;2629568;47;19950;-82
2024/01/06 19:58:37;;;;;;;;;;;6.00;99.90;;;;;;2629124;47;19942;-83
2024/01/06 20:01:08;;;;;;;;;;;6.10;99.90;;;;;;2629364;54;19942;-81
2024/01/06 20:03:40;;;;;;;;;;;6.00;99.90;;;;;;2629588;54;19939;-81
2024/01/06 20:06:11;;;;;;;;;;;6.60;99.90;;;;;;2629487;47;19935;-83
2024/01/06 20:08:40;;;;;;;;;;;6.00;99.90;;;;;;2627420;54;19946;-81
2024/01/06 20:11:11;;;;;;;;;;;8.90;99.90;;;;;;2628069;47;19927;-83
2024/01/06 20:13:40;;;;;;;;;;;6.00;99.90;;;;;;2628088;54;19927;-81
2024/01/06 20:27:02;;;;;;;;;;;5.80;99.90;;;;;;2632305;54;19927;-93
2024/01/06 20:29:38;;;;;;;;;;;5.70;99.90;;;;;;2617862;47;20311;-75
2024/01/06 20:32:08;;;;;;;;;;;5.80;99.90;;;;;;2618515;47;19938;-76
2024/01/06 20:34:39;;;;;;;;;;;5.70;99.90;;;;;;2617022;54;19939;-73
2024/01/06 20:37:09;;;;;;;;;;;5.80;99.90;;;;;;2619010;54;20483;-76
2024/01/06 20:39:39;;;;;;;;;;;6.00;99.90;;;;;;2621534;47;20021;-74
2024/01/06 20:42:11;;;;;;;;;;;5.80;99.90;;;;;;2621475;54;19946;-75
2024/01/06 20:44:43;;;;;;;;;;;5.70;99.90;;;;;;2621082;46;19964;-75
2024/01/06 20:47:13;;;;;;;;;;;6.10;99.90;;;;;;2617282;47;19945;-76
2024/01/06 20:49:43;;;;;;;;;;;6.00;99.90;;;;;;2618470;47;19972;-75
2024/01/06 20:52:13;;;;;;;;;;;5.80;99.90;;;;;;2617923;47;20449;-75
2024/01/06 20:54:42;;;;;;;;;;;5.90;99.90;;;;;;2616629;47;19973;-77
2024/01/06 20:57:15;;;;;;;;;;;5.90;99.90;;;;;;2617446;47;19954;-78
2024/01/06 20:59:45;;;;;;;;;;;6.00;99.90;;;;;;2617278;54;19954;-77
2024/01/06 21:02:17;;;;;;;;;;;6.00;99.90;;;;;;2616771;54;20881;-74
2024/01/06 21:04:47;;;;;;;;;;;6.00;99.90;;;;;;2619664;47;20436;-74
2024/01/06 21:07:16;;;;;;;;;;;5.90;99.90;;;;;;2622496;47;19945;-74
2024/01/06 21:09:46;;;;;;;;;;;5.90;99.90;;;;;;2621714;47;20049;-73
2024/01/06 21:12:18;;;;;;;;;;;7.20;99.90;;;;;;2621070;47;19947;-75
2024/01/06 21:14:48;;;;;;;;;;;5.90;99.90;;;;;;2620585;47;20066;-75
2024/01/06 21:17:18;;;;;;;;;;;5.90;99.90;;;;;;2620486;47;19947;-75
2024/01/06 21:19:51;;;;;;;;;;;5.90;99.90;;;;;;2623398;46;19938;-74
2024/01/06 21:22:21;;;;;;;;;;;5.80;99.90;;;;;;2620048;47;19951;-74
2024/01/06 21:24:52;;;;;;;;;;;5.70;99.90;;;;;;2619800;47;19989;-74
2024/01/06 21:27:24;;;;;;;;;;;6.60;99.90;;;;;;2618072;54;19946;-74
2024/01/06 21:29:54;;;;;;;;;;;5.70;99.90;;;;;;2618236;47;19946;-76
2024/01/06 21:32:23;;;;;;;;;;;5.70;99.90;;;;;;2616438;54;19947;-75
2024/01/06 21:34:54;;;;;;;;;;;5.80;99.90;;;;;;2616516;47;19981;-74
2024/01/06 21:37:23;;;;;;;;;;;5.80;99.90;;;;;;2617263;54;19947;-74
2024/01/06 21:39:53;;;;;;;;;;;5.80;99.90;;;;;;2618990;50;19945;-75
2024/01/06 21:42:25;;;;;;;;;;;5.70;99.90;;;;;;2621238;47;19951;-71
2024/01/06 21:44:56;;;;;;;;;;;5.80;99.90;;;;;;2621963;39;20351;-70
2024/01/06 21:47:26;;;;;;;;;;;5.80;99.90;;;;;;2619905;54;19953;-70
2024/01/06 21:49:55;;;;;;;;;;;5.70;99.90;;;;;;2616870;50;20042;-69
2024/01/06 21:52:25;;;;;;;;;;;5.60;99.90;;;;;;2615088;46;19946;-70
2024/01/06 22:02:55;;;;;;;;;;;5.40;99.90;;;;;;2622713;54;20523;-71
2024/01/06 22:05:26;;;;;;;;;;;5.30;99.90;;;;;;2622174;39;20340;-71
2024/01/06 22:07:55;;;;;;;;;;;5.20;99.90;;;;;;2618817;54;19954;-70
2024/01/06 22:10:28;;;;;;;;;;;5.10;99.90;;;;;;2617669;54;19939;-70
2024/01/06 22:12:58;;;;;;;;;;;5.20;99.90;;;;;;2618693;54;19953;-71
2024/01/06 22:15:27;;;;;;;;;;;5.20;99.90;;;;;;2618638;54;19966;-71
2024/01/06 22:18:02;;;;;;;;;;;5.20;99.90;;;;;;2617700;54;19939;-70
2024/01/06 22:20:31;;;;;;;;;;;5.20;99.90;;;;;;2618311;54;19945;-70
2024/01/06 22:23:01;;;;;;;;;;;5.20;99.90;;;;;;2618949;47;19946;-70
2024/01/06 22:25:31;;;;;;;;;;;5.30;99.90;;;;;;2617884;54;19954;-70
2024/01/06 22:28:01;;;;;;;;;;;5.30;99.90;;;;;;2617521;49;20476;-73
2024/01/06 22:30:31;;;;;;;;;;;5.30;99.90;;;;;;2618228;54;19946;-70
2024/01/06 22:33:03;;;;;;;;;;;5.30;99.90;;;;;;2618256;54;19947;-71
2024/01/06 22:35:33;;;;;;;;;;;5.40;99.90;;;;;;2618077;54;19950;-71
2024/01/06 22:38:03;;;;;;;;;;;5.40;99.90;;;;;;2618363;47;19938;-71
2024/01/06 22:40:33;;;;;;;;;;;5.40;99.90;;;;;;2617885;39;20440;-71
2024/01/06 22:43:02;;;;;;;;;;;5.40;99.90;;;;;;2618219;47;20437;-71
2024/01/06 22:45:32;;;;;;;;;;;5.40;99.90;;;;;;2617881;54;19954;-71
2024/01/06 22:48:05;;;;;;;;;;;5.30;99.90;;;;;;2618379;39;20348;-71
2024/01/06 22:50:34;;;;;;;;;;;5.30;99.90;;;;;;2617171;47;19947;-70
2024/01/06 22:53:04;;;;;;;;;;;5.30;99.90;;;;;;2616251;54;19945;-71
2024/01/06 22:55:34;;;;;;;;;;;5.30;99.90;;;;;;2616506;47;19939;-71
2024/01/06 22:58:03;;;;;;;;;;;5.30;99.90;;;;;;2616950;54;19954;-71
2024/01/06 23:00:36;;;;;;;;;;;5.30;99.90;;;;;;2616751;54;19953;-71
2024/01/06 23:03:08;;;;;;;;;;;5.30;99.90;;;;;;2617030;54;19947;-72
2024/01/06 23:05:38;;;;;;;;;;;5.30;99.90;;;;;;2616634;47;19946;-71
2024/01/06 23:08:08;;;;;;;;;;;5.40;99.90;;;;;;2622057;54;19946;-71